Date,TemperatureHighF,TemperatureAvgF,TemperatureLowF,DewpointHighF,DewpointAvgF,DewpointLowF,HumidityHigh,HumidityAvg,HumidityLow,PressureMaxIn,PressureMinIn,WindSpeedMaxMPH,WindSpeedAvgMPH,GustSpeedMaxMPH,PrecipitationSumIn
2013-1-1,47.9,46.1,43.1,47.9,38.2,25.4,100,77,43,30.22,30.05,9,1,11,0.21
2013-1-2,47.3,42.0,38.2,47.3,40.9,36.8,100,96,84,30.32,30.04,6,0,6,0.24
2013-1-3,42.2,37.7,32.4,37.3,35.3,31.5,97,91,73,30.38,30.27,3,0,4,0.01
2013-1-4,47.7,37.0,28.1,31.5,24.2,19.0,97,63,33,30.44,30.32,9,1,14,0.00
2013-1-5,49.2,37.9,27.9,28.4,23.3,18.8,76,57,31,30.52,30.37,5,0,6,0.00
2013-1-6,49.4,42.4,37.8,37.1,33.6,26.4,87,71,53,30.37,30.18,4,0,5,0.01
2013-1-7,50.5,40.2,32.7,33.4,30.3,28.1,85,69,45,30.58,30.30,3,0,6,0.00
2013-1-8,54.1,42.1,32.2,39.0,33.6,28.8,91,73,48,30.59,30.50,3,0,3,0.00
2013-1-9,66.8,51.6,39.1,49.4,43.4,37.0,96,76,52,30.57,30.47,6,0,10,0.00
2013-1-10,61.0,53.9,45.7,49.0,40.6,31.6,90,62,47,30.66,30.52,5,0,6,0.00
2013-1-11,50.5,46.1,41.8,50.5,42.4,31.1,100,88,59,30.57,30.27,5,0,6,0.21
2013-1-12,67.8,56.8,49.1,64.1,55.9,49.1,100,97,79,30.29,30.22,5,1,7,0.01
2013-1-13,73.7,61.7,54.2,64.6,57.7,54.2,100,88,59,30.26,30.17,11,0,11,0.00
2013-1-14,68.1,62.6,52.3,63.6,59.5,52.0,100,90,74,30.27,30.19,6,0,7,0.10
2013-1-15,51.9,43.9,42.1,51.6,43.9,41.9,100,100,98,30.36,30.19,4,0,7,0.02
2013-1-16,48.9,44.9,41.9,48.9,44.9,41.9,100,100,100,30.20,30.09,3,0,5,0.18
2013-1-17,49.6,46.1,32.7,49.6,46.0,32.5,100,100,99,30.18,30.03,11,1,13,0.92
2013-1-23,34.4,30.5,29.3,14.7,13.4,10.8,54,49,37,30.33,30.18,1,0,3,0.00
2013-1-24,34.4,29.7,21.3,22.8,12.3,2.2,64,49,26,30.64,30.07,17,1,17,0.00
2013-1-25,26.7,22.9,17.8,25.5,13.3,2.1,95,69,38,30.65,30.23,4,0,6,0.00
2013-1-26,33.4,28.9,26.0,30.9,27.7,24.6,98,95,89,30.53,30.21,5,0,10,0.13
2013-1-27,37.9,28.8,22.7,27.8,24.6,21.5,97,85,62,30.74,30.53,4,0,5,0.05
2013-1-28,50.1,40.9,28.5,46.5,35.1,24.5,91,80,57,30.63,30.33,4,0,11,0.06
2013-1-29,72.3,58.2,48.0,56.0,51.0,46.4,97,78,52,30.34,30.18,9,2,12,0.00
2013-1-30,70.8,65.8,59.0,63.5,60.8,55.6,98,84,73,30.18,29.48,14,2,20,0.02
2013-1-31,64.8,46.3,35.3,61.8,28.4,14.9,95,52,27,30.13,29.53,18,4,23,0.29
2013-2-1,40.3,33.4,23.5,26.3,11.2,-0.8,65,41,21,30.52,29.98,14,2,20,0.00
2013-2-2,43.5,33.6,18.9,29.6,11.2,3.9,68,41,24,30.54,30.15,15,1,16,0.00
2013-2-3,46.4,39.9,34.4,34.1,28.1,20.6,91,65,38,30.15,29.97,11,1,13,0.00
2013-2-4,47.6,36.3,25.7,24.0,20.0,15.2,79,54,30,30.27,30.11,7,0,11,0.00
2013-2-5,57.6,49.8,41.1,33.3,31.4,28.4,70,50,34,30.10,30.00,9,1,11,0.00
2013-2-6,59.9,47.0,35.8,33.2,28.1,20.4,83,52,22,30.40,30.08,6,1,12,0.00
2013-2-7,47.0,40.5,34.1,41.9,35.6,31.3,100,83,66,30.46,30.14,5,1,6,0.52
2013-2-8,53.1,43.9,37.9,43.9,38.9,27.7,100,84,52,30.15,29.93,12,2,13,0.63
2013-2-9,39.5,35.2,30.9,28.1,24.5,19.1,74,65,45,30.39,30.14,9,1,14,0.00
2013-2-10,51.3,47.1,43.3,39.3,24.9,17.2,85,44,26,30.48,30.34,5,1,6,0.02
2013-2-11,62.0,54.5,43.1,59.7,52.4,38.0,100,93,83,30.34,30.03,13,1,14,0.03
2013-2-12,58.7,52.1,44.6,53.6,33.4,22.4,90,52,26,30.20,30.04,10,1,11,0.00
2013-2-13,48.8,45.0,41.1,46.1,42.6,31.5,100,92,51,30.07,29.74,10,0,12,0.33
2013-2-14,50.4,40.5,31.2,35.8,32.0,28.6,96,74,44,30.20,29.93,7,0,7,0.00
2013-2-15,61.0,46.1,34.1,37.6,32.0,26.1,91,62,27,30.22,30.06,6,0,10,0.00
2013-2-16,45.2,35.6,29.3,35.4,32.1,28.3,98,88,62,30.08,29.95,5,0,9,0.24
2013-2-17,34.7,27.9,21.8,28.4,13.7,3.3,96,59,27,30.41,30.02,15,2,19,0.06
2013-2-18,50.5,33.1,19.2,24.7,15.8,10.1,84,53,25,30.55,30.38,7,0,9,0.10
2013-2-19,51.9,42.6,32.1,49.9,37.3,24.7,97,82,56,30.38,29.98,15,1,18,0.07
2013-2-20,50.2,42.3,32.8,19.1,13.0,6.6,47,31,17,30.27,30.12,13,2,14,0.00
2013-2-21,52.9,39.1,25.8,21.0,16.9,13.0,69,43,22,30.39,30.23,6,0,10,0.00
2013-2-22,39.8,34.9,30.4,35.0,29.7,18.6,99,83,43,30.47,30.26,4,0,5,0.23
2013-2-23,42.3,38.9,35.0,42.3,38.9,34.8,100,100,99,30.27,29.93,3,0,6,0.61
2013-2-24,60.9,48.8,41.8,46.5,36.1,23.8,100,68,26,30.15,29.90,7,1,11,0.03
2013-2-25,42.5,36.1,30.4,27.9,22.8,19.6,72,59,43,30.35,30.15,5,0,5,0.00
2013-2-26,56.5,43.7,33.4,56.5,40.8,24.1,100,90,66,30.27,29.69,10,2,13,0.71
2013-2-27,58.7,48.7,41.8,47.3,38.8,32.8,100,72,38,29.90,29.72,15,2,15,0.00
2013-2-28,47.4,41.7,35.3,38.4,30.5,24.0,90,66,41,29.97,29.80,11,1,15,0.00
2013-3-1,47.0,39.0,29.4,30.6,26.7,24.0,87,63,41,30.03,29.94,8,1,11,0.00
2013-3-2,47.0,38.4,29.5,28.4,23.6,18.2,75,56,37,30.03,29.94,11,1,11,0.00
2013-3-3,45.1,34.6,27.8,20.5,18.0,14.3,71,52,33,30.10,29.96,12,1,15,0.00
2013-3-4,49.8,35.8,24.1,16.2,12.9,8.0,62,41,20,30.23,30.08,13,1,14,0.00
2013-3-5,51.3,42.4,36.8,43.8,31.5,15.1,100,69,33,30.20,29.69,10,1,11,0.50
2013-3-6,43.3,39.1,34.4,40.5,32.9,25.1,100,80,58,30.13,29.61,26,4,26,0.02
2013-3-7,48.9,39.8,30.4,31.0,27.9,24.5,88,64,43,30.34,30.13,13,1,16,0.00
2013-3-8,54.2,41.6,30.3,27.0,23.8,19.2,76,52,27,30.40,30.26,13,2,17,0.00
2013-3-9,61.8,46.2,32.1,28.7,25.4,22.3,76,47,23,30.45,30.36,7,0,9,0.00
2013-3-10,66.4,50.6,37.3,27.2,23.2,15.0,65,37,15,30.44,30.33,4,0,9,0.00
2013-3-11,65.8,52.3,41.3,51.2,39.5,21.6,92,63,37,30.36,30.06,7,1,10,0.00
2013-3-12,68.3,59.8,47.4,61.2,52.8,33.6,100,80,53,30.06,29.87,12,2,13,0.92
2013-3-13,55.9,45.0,33.4,34.1,25.8,16.0,85,50,27,30.24,30.05,16,2,18,0.00
2013-3-14,52.5,39.2,28.4,18.3,15.9,12.4,63,41,21,30.35,30.22,13,2,15,0.00
2013-3-15,61.5,51.6,30.3,33.8,26.5,16.3,63,39,27,30.30,30.01,15,2,15,0.00
2013-3-16,77.2,62.3,49.4,50.6,41.9,32.9,64,49,30,30.00,29.75,12,2,15,0.00
2013-3-17,64.3,49.4,38.3,52.3,43.3,36.0,98,80,61,30.31,29.94,6,1,7,0.00
2013-3-18,41.3,38.7,36.2,41.3,38.5,35.8,100,99,95,30.33,29.98,5,1,6,0.18
2013-3-19,66.1,50.2,38.6,46.8,32.0,9.6,100,62,14,30.14,29.93,15,2,17,0.00
2013-3-20,55.3,44.5,36.0,22.0,11.5,3.2,51,27,17,30.23,29.92,7,0,14,0.00
2013-3-21,43.2,37.5,29.4,31.1,17.0,6.0,77,45,25,30.09,29.83,10,1,18,0.00
2013-3-22,50.4,37.4,22.4,19.8,12.1,6.8,67,38,18,30.20,30.08,10,1,12,0.00
2013-3-23,54.7,43.7,36.2,31.2,22.8,15.0,67,45,25,30.18,30.03,5,0,6,0.00
2013-3-24,40.6,37.7,34.7,37.2,33.2,27.9,98,85,63,30.05,29.69,6,1,10,0.69
2013-3-25,46.4,38.3,33.4,37.2,30.6,20.3,99,78,37,29.83,29.67,16,2,18,0.01
2013-3-26,48.0,42.7,32.4,28.1,25.8,24.0,74,52,41,30.21,29.98,11,1,11,0.00
2013-3-27,50.5,39.9,31.2,26.2,22.9,16.9,78,53,28,30.34,30.21,12,2,17,0.00
2013-3-28,55.9,43.0,30.1,26.1,22.6,18.0,76,47,24,30.40,30.27,6,1,15,0.00
2013-3-29,40.3,34.3,30.9,26.0,24.0,22.7,79,66,50,30.44,30.39,0,0,1,0.00
2013-4-1,66.9,63.9,61.5,38.9,37.7,36.1,43,38,32,29.98,29.95,5,1,13,0.03
2013-4-4,39.9,38.8,38.3,38.0,37.8,37.4,98,96,91,30.29,30.05,5,1,11,0.66
2013-4-5,64.2,49.3,38.3,46.3,41.9,36.8,100,79,45,30.13,29.97,6,1,8,0.06
2013-4-6,64.3,52.4,44.1,39.2,29.1,19.7,78,44,22,30.40,30.13,7,1,10,0.00
2013-4-7,71.6,54.4,34.6,41.8,35.4,27.9,89,53,28,30.40,30.24,10,1,14,0.00
2013-4-8,79.4,66.1,54.8,54.7,50.4,40.6,93,60,32,30.28,30.16,8,1,13,0.00
2013-4-9,85.3,71.4,59.8,57.5,54.4,49.1,91,59,29,30.29,30.17,10,1,12,0.00
2013-4-10,87.8,74.3,63.7,59.5,56.7,51.2,82,57,30,30.20,30.06,6,1,14,0.00
2013-4-11,81.8,71.4,62.9,65.2,58.9,54.7,90,66,41,30.11,29.92,9,2,14,0.00
2013-4-12,80.7,71.0,64.5,69.5,62.3,40.2,100,77,37,29.93,29.72,9,1,17,0.89
2013-4-13,73.9,63.6,52.0,43.3,38.2,33.6,62,41,24,30.12,29.84,6,1,10,0.05
2013-4-14,81.1,64.6,48.5,51.7,41.9,33.1,92,50,18,30.22,30.12,4,0,6,0.02
2013-4-15,69.9,62.8,56.5,58.0,54.8,51.6,93,76,59,30.34,30.14,4,1,10,0.01
2013-4-16,76.3,63.5,56.6,59.8,57.4,54.9,100,83,49,30.43,30.32,2,0,4,0.01
2013-4-17,83.6,69.2,58.1,65.3,60.7,56.1,100,77,44,30.34,30.23,5,0,6,0.01
2013-4-18,80.3,67.2,59.6,62.6,58.9,54.8,96,77,42,30.32,30.23,4,0,8,0.00
2013-4-21,52.8,48.1,44.3,38.0,36.7,34.4,69,64,56,30.62,30.57,1,0,2,0.00
2013-4-22,59.0,47.7,36.5,44.8,37.9,33.3,90,70,47,30.61,30.40,4,0,6,0.00
2013-4-23,68.4,54.2,47.6,50.1,45.4,42.1,89,73,47,30.40,30.25,3,0,5,0.00
2013-4-24,76.5,62.2,48.5,55.6,51.9,47.4,98,72,42,30.26,30.08,7,0,12,0.01
2013-4-25,70.8,60.6,51.7,55.9,46.1,38.1,82,60,35,30.39,30.12,4,0,6,0.00
2013-4-26,74.2,59.1,46.4,49.2,41.1,29.9,98,59,21,30.54,30.39,3,0,3,0.00
2013-4-27,73.9,61.5,50.8,50.0,43.0,37.2,77,53,28,30.50,30.38,5,0,6,0.00
2013-4-28,61.2,57.2,53.5,56.6,48.2,40.9,98,73,54,30.38,30.23,2,0,3,0.00
2013-4-29,70.6,62.6,53.8,63.7,60.3,53.2,100,93,72,30.23,30.08,2,0,3,0.01
2013-4-30,64.8,60.1,56.2,60.5,58.0,54.9,100,93,75,30.29,30.11,1,0,3,0.02
2013-5-1,59.0,57.2,56.3,58.4,56.2,55.0,99,96,93,30.45,30.28,3,0,4,0.00
2013-5-2,60.7,57.2,52.9,56.6,54.8,49.7,100,92,82,30.46,30.37,1,0,2,0.07
2013-5-3,67.8,55.8,47.3,53.6,48.2,43.3,98,78,44,30.39,30.30,4,0,4,0.00
2013-5-4,52.2,49.5,47.7,46.7,45.6,44.0,92,87,80,30.34,30.29,3,0,4,0.01
2013-5-5,52.2,52.2,52.2,46.5,46.5,46.5,81,81,81,30.31,30.31,1,1,3,0.01
2013-5-7,71.3,61.7,53.2,59.2,53.8,46.6,100,78,43,30.07,29.99,6,0,6,0.00
2013-5-8,71.6,59.8,51.9,60.7,55.8,50.8,100,88,55,30.13,30.04,5,0,7,0.01
2013-5-9,81.6,70.3,56.3,62.3,57.4,50.8,100,67,36,30.18,30.10,4,0,5,0.01
2013-5-10,75.8,63.0,58.4,60.3,56.7,54.7,93,80,58,30.18,30.16,2,0,2,0.00
2013-5-12,72.1,62.8,54.2,43.3,38.1,33.3,53,41,28,30.15,30.00,4,0,7,0.00
2013-5-13,66.8,55.6,44.6,42.2,35.5,28.5,77,49,26,30.31,30.15,4,0,7,0.00
2013-5-14,70.1,55.0,40.5,43.5,36.8,30.8,90,55,26,30.37,30.23,5,0,6,0.00
2013-5-15,88.6,81.3,72.7,61.1,59.8,57.6,65,49,36,30.04,30.01,4,0,5,0.00
2013-5-16,84.7,74.7,63.5,62.8,60.0,55.7,91,62,39,30.08,29.99,4,0,6,0.00
2013-5-17,85.7,69.7,62.3,64.0,61.2,59.2,95,77,42,30.20,30.08,1,0,1,0.00
2013-5-19,72.5,68.8,66.3,71.2,67.7,66.3,100,96,92,30.25,30.19,1,0,4,0.01
2013-5-20,74.9,69.5,66.3,73.0,68.6,66.3,100,97,83,30.24,30.15,3,0,5,0.00
2013-5-21,86.1,73.6,67.6,72.0,69.0,67.0,100,87,61,30.17,30.07,2,0,5,0.00
2013-5-28,84.3,76.2,59.5,66.6,63.1,56.6,92,65,51,30.38,30.27,4,0,6,0.00
2013-5-29,86.5,74.3,63.9,65.1,62.6,59.3,95,69,42,30.36,30.28,4,0,6,0.00
2013-5-30,88.8,73.8,64.2,67.0,63.8,57.1,97,74,36,30.39,30.30,2,0,5,0.00
2013-5-31,71.5,69.3,66.9,68.6,66.2,65.2,97,90,81,30.34,30.31,1,0,3,0.00
2013-6-8,83.0,75.0,69.3,69.7,67.8,65.3,94,80,57,30.22,30.10,0,0,1,0.00
2013-6-9,87.6,76.1,67.4,73.0,69.8,66.5,100,83,58,30.28,30.18,2,0,5,0.00
2013-6-10,83.0,73.7,70.4,78.3,72.5,69.1,100,96,74,30.22,30.02,5,0,9,0.00
2013-6-13,68.1,67.8,67.3,68.1,67.7,67.3,100,100,99,29.83,29.77,1,0,1,0.23
2013-6-14,78.8,68.9,59.5,67.3,59.5,54.7,100,75,47,30.13,29.83,4,0,12,0.00
2013-6-15,85.7,71.2,59.6,65.6,60.5,55.8,96,71,38,30.23,30.12,2,0,4,0.00
2013-6-16,86.3,76.3,67.8,69.3,65.7,58.1,79,70,53,30.21,30.12,5,0,5,0.00
2013-6-17,84.7,75.8,70.9,74.1,68.6,64.4,96,79,65,30.15,30.05,2,0,4,0.06
2013-6-18,82.8,73.4,67.8,73.2,70.6,67.6,100,92,70,30.07,29.88,5,0,6,0.99
2013-6-19,78.1,70.6,64.7,67.9,66.0,63.4,100,87,62,30.25,29.99,2,0,3,0.00
2013-6-20,82.8,71.1,62.6,65.5,61.5,52.3,100,74,48,30.37,30.25,1,0,3,0.00
2013-6-21,81.6,67.3,59.2,59.9,54.2,51.0,95,65,37,30.39,30.34,1,0,2,0.00
2013-6-23,84.9,78.9,73.7,74.2,72.0,68.8,94,80,66,30.31,30.26,1,0,2,0.01
2013-6-24,87.6,77.2,71.1,75.1,72.5,70.6,100,86,64,30.33,30.21,2,0,5,0.00
2013-6-25,88.8,77.0,69.9,76.9,71.2,68.3,98,83,61,30.24,30.13,3,0,5,0.00
2013-6-27,88.8,81.2,70.8,76.3,73.4,70.2,100,78,57,29.97,29.83,6,0,6,0.00
2013-6-28,91.2,77.7,70.4,73.9,71.9,67.1,100,85,53,29.88,29.70,6,0,16,0.79
2013-6-29,84.9,78.7,70.4,75.3,73.0,70.2,100,84,66,29.86,29.75,3,0,10,0.79
2013-6-30,85.3,75.0,70.3,78.3,73.0,69.5,100,94,70,29.99,29.84,3,0,4,0.48
2013-7-1,81.2,74.4,69.9,74.7,72.3,69.9,100,93,79,30.11,29.96,5,0,5,1.40
2013-7-2,76.1,72.8,70.8,74.9,72.6,70.8,100,99,95,30.32,30.11,5,0,6,0.48
2013-7-3,85.7,75.4,72.3,76.2,73.9,72.3,100,96,70,30.36,30.28,5,0,5,0.01
2013-7-7,88.8,82.7,76.5,75.0,73.9,72.4,92,75,60,30.27,30.19,3,0,5,0.00
2013-7-8,89.7,76.5,70.9,76.2,72.7,70.2,100,89,56,30.30,30.21,3,0,4,0.66
2013-7-9,88.8,76.7,71.3,77.9,73.7,69.2,100,92,64,30.28,30.19,3,0,6,0.13
2013-7-17,87.0,81.7,78.8,76.3,74.8,73.4,87,80,66,30.26,30.23,0,0,0,0.00
2013-7-18,94.9,82.1,74.0,78.8,75.2,70.4,100,81,50,30.26,30.16,0,0,0,0.00
2013-7-19,91.8,81.4,74.6,77.1,74.7,71.1,100,82,56,30.21,30.11,3,0,4,0.00
2013-7-20,78.1,78.0,77.9,73.0,72.9,72.7,85,84,84,30.13,30.13,0,0,0,0.00
2013-11-26,64.7,61.1,52.2,64.7,61.1,52.2,100,100,100,29.68,29.55,4,1,7,0.65
2013-11-27,52.2,39.1,29.0,50.1,36.5,17.6,100,91,61,30.13,29.47,10,2,14,0.78
2013-11-28,43.1,31.3,21.9,22.8,18.6,15.2,81,61,36,30.48,30.14,3,0,9,0.00
2013-11-29,48.5,36.1,27.2,25.7,23.1,21.3,86,61,37,30.63,30.45,4,0,7,0.00
2013-11-30,47.1,35.3,26.4,32.0,27.0,21.7,86,72,54,30.64,30.36,3,0,4,0.00
2013-12-1,57.0,40.6,27.5,35.2,30.4,26.3,97,71,31,30.35,30.02,4,0,6,0.00
2013-12-2,57.5,45.2,39.2,42.6,38.2,33.6,97,78,50,30.00,29.82,3,0,3,0.00
2013-12-3,57.0,48.1,38.0,46.1,39.8,32.6,85,73,57,29.98,29.85,1,0,6,0.00
2013-12-4,61.0,55.6,51.1,56.5,52.2,46.1,100,88,82,30.07,29.96,2,0,4,0.00
2013-12-5,65.2,60.8,54.7,64.8,60.5,54.4,100,99,93,30.12,30.02,5,0,10,0.03
2013-12-6,77.6,69.4,64.2,64.7,62.3,60.6,100,80,57,30.05,29.94,14,2,19,0.01
2013-12-7,68.6,47.2,40.6,64.0,42.0,28.2,98,83,61,30.45,29.97,9,1,14,0.15
2013-12-8,40.5,34.3,31.6,33.4,30.7,25.8,100,88,60,30.46,30.28,4,0,6,0.11
2013-12-9,43.9,38.4,33.4,43.9,38.4,33.4,100,100,100,30.28,30.05,4,0,6,0.23
2013-12-10,45.4,41.2,29.5,45.4,39.3,23.6,100,93,67,30.31,29.92,6,0,7,0.39
2013-12-11,48.5,35.3,25.6,27.2,23.5,17.6,92,65,31,30.44,30.27,5,0,7,0.00
2013-12-12,42.5,34.3,26.6,26.5,18.5,6.5,79,54,23,30.41,30.25,13,0,13,0.00
2013-12-13,27.2,26.6,25.4,19.1,17.1,13.6,74,67,58,30.35,30.33,2,0,3,0.00
2013-12-14,46.4,36.2,26.7,41.1,30.1,17.2,100,80,47,30.34,29.75,7,1,11,0.99
2013-12-15,51.9,42.6,37.0,43.9,36.5,28.9,100,82,45,29.99,29.68,10,1,13,0.03
2013-12-16,53.6,43.0,29.4,34.3,31.5,26.7,91,65,41,30.17,30.08,6,0,7,0.00
2013-12-17,61.0,46.0,34.7,36.4,34.1,31.4,91,66,35,30.11,29.86,9,0,11,0.00
2013-12-23,65.5,54.5,46.0,64.2,53.3,40.0,100,96,81,30.12,29.97,7,1,11,0.92
2013-12-24,45.8,39.2,27.9,42.0,27.9,11.8,95,65,45,30.44,30.10,12,1,12,0.01
2013-12-25,38.0,28.6,22.4,18.8,12.9,7.3,74,53,30,30.55,30.39,4,0,5,0.00
2013-12-26,51.6,36.1,24.8,28.5,24.0,18.0,90,64,33,30.39,30.23,6,0,6,0.00
2013-12-27,52.8,38.5,30.6,24.5,20.3,16.6,64,49,26,30.45,30.34,3,0,4,0.00
2013-12-28,58.4,43.2,29.1,32.8,25.6,21.8,81,53,26,30.39,30.15,4,0,6,0.00
2013-12-29,61.5,48.6,42.3,61.3,45.9,29.0,100,92,45,30.15,29.66,11,1,15,1.34
2013-12-30,44.1,40.4,37.5,44.1,40.4,37.3,100,100,100,30.01,29.90,2,0,2,0.00
2014-1-2,46.8,43.8,39.2,44.1,39.0,31.6,100,84,63,29.95,29.56,12,0,12,0.33